createdAt,value
2022-08-05T00:04:14.218Z,99748.84
2022-08-05T00:08:34.364Z,99737.25
2022-08-05T00:12:55.922Z,99743.50
2022-08-05T00:17:28.616Z,99744.47
2022-08-05T00:21:44.666Z,99738.78
2022-08-05T00:26:00.901Z,99741.16
2022-08-05T00:30:17.785Z,99748.31
2022-08-05T00:34:54.016Z,99736.50
2022-08-05T00:39:13.993Z,99737.56
2022-08-05T00:43:46.854Z,99733.19
2022-08-05T00:48:06.265Z,99738.38
2022-08-05T00:52:28.534Z,99737.72
2022-08-05T00:56:51.538Z,99742.59
2022-08-05T01:01:08.900Z,99729.06
2022-08-05T01:05:27.384Z,99729.13
2022-08-05T01:09:43.681Z,99717.78
2022-08-05T01:14:34.786Z,99725.66
2022-08-05T01:18:56.612Z,99720.88
2022-08-05T01:23:34.864Z,99721.94
2022-08-05T01:28:10.349Z,99721.81
2022-08-05T01:32:27.922Z,99733.41
2022-08-05T01:36:47.669Z,99728.47
2022-08-05T01:41:04.760Z,99732.56
2022-08-05T01:45:23.658Z,99726.13
2022-08-05T01:50:00.272Z,99734.87
2022-08-05T01:54:19.665Z,99728.31
2022-08-05T01:58:45.111Z,99728.81
2022-08-05T02:03:06.933Z,99729.19
2022-08-05T02:07:47.230Z,99727.66
2022-08-05T02:12:19.238Z,99722.12
2022-08-05T02:16:52.248Z,99721.59
2022-08-05T02:21:21.911Z,99732.78
2022-08-05T02:25:49.045Z,99732.78
2022-08-05T02:30:10.667Z,99731.19
2022-08-05T02:34:30.159Z,99732.13
2022-08-05T02:38:53.237Z,99733.47
2022-08-05T02:43:14.105Z,99723.62
2022-08-05T02:48:06.594Z,99717.53
2022-08-05T02:52:29.953Z,99724.72
2022-08-05T02:56:47.278Z,99719.16
2022-08-05T03:01:04.647Z,99717.59
2022-08-05T03:05:21.669Z,99721.81
2022-08-05T03:09:57.577Z,99719.22
2022-08-05T03:14:13.872Z,99720.84
2022-08-05T03:18:30.858Z,99708.28
2022-08-05T03:22:50.109Z,99716.09
2022-08-05T03:27:06.843Z,99712.69
2022-08-05T03:31:55.890Z,99704.63
2022-08-05T03:35:59.912Z,99705.28
2022-08-05T03:40:24.146Z,99701.78
2022-08-05T03:44:40.747Z,99706.25
2022-08-05T03:48:56.824Z,99701.13
2022-08-05T03:55:53.788Z,99701.97
2022-08-05T03:57:58.347Z,99699.59
2022-08-05T04:02:17.390Z,99701.16
2022-08-05T04:06:37.539Z,99710.19
2022-08-05T04:10:53.631Z,99710.69
2022-08-05T04:15:15.527Z,99713.34
2022-08-05T04:19:42.075Z,99709.88
2022-08-05T04:24:06.438Z,99708.44
2022-08-05T04:28:28.494Z,99716.34
2022-08-05T04:32:47.887Z,99705.44
2022-08-05T04:37:04.495Z,99704.81
2022-08-05T04:41:21.071Z,99703.47
2022-08-05T04:45:55.042Z,99704.59
2022-08-05T04:50:11.869Z,99707.09
2022-08-05T04:54:27.967Z,99697.66
2022-08-05T04:58:44.329Z,99702.41
2022-08-05T05:03:03.662Z,99712.91
2022-08-05T05:07:23.765Z,99706.66
2022-08-05T05:11:41.521Z,99708.97
2022-08-05T05:16:06.951Z,99711.13
2022-08-05T05:20:23.247Z,99708.72
2022-08-05T05:24:57.012Z,99698.66
2022-08-05T05:29:15.302Z,99694.53
2022-08-05T05:33:31.453Z,99704.97
2022-08-05T05:38:09.260Z,99698.38
2022-08-05T05:42:29.033Z,99691.44
2022-08-05T05:46:45.091Z,99692.00
2022-08-05T05:51:15.181Z,99694.00
2022-08-05T05:55:51.690Z,99695.53
2022-08-05T06:00:11.636Z,99693.94
2022-08-05T06:04:27.739Z,99694.31
2022-08-05T06:08:44.536Z,99694.41
2022-08-05T06:13:05.468Z,99692.19
2022-08-05T06:17:24.635Z,99692.25
2022-08-05T06:21:49.415Z,99684.41
2022-08-05T06:26:12.553Z,99678.09
2022-08-05T06:30:30.104Z,99687.66
2022-08-05T06:34:47.064Z,99688.53
2022-08-05T06:39:03.251Z,99695.50
2022-08-05T06:43:57.867Z,99684.28
2022-08-05T06:48:36.309Z,99694.50
2022-08-05T06:52:36.784Z,99688.97
2022-08-05T06:57:13.935Z,99689.06
2022-08-05T07:01:32.279Z,99686.31
2022-08-05T07:05:48.601Z,99681.09
2022-08-05T07:10:07.106Z,99686.31
2022-08-05T07:14:42.378Z,99693.19
2022-08-05T07:19:00.342Z,99684.38
2022-08-05T07:23:26.284Z,99693.19
2022-08-05T07:27:58.422Z,99677.09
2022-08-05T07:32:18.627Z,99681.91
2022-08-05T07:36:42.638Z,99680.69
2022-08-05T07:41:00.356Z,99670.94
2022-08-05T07:45:31.162Z,99673.78
2022-08-05T07:49:57.056Z,99663.88
2022-08-05T07:54:15.142Z,99670.66
2022-08-05T07:58:57.593Z,99673.66
2022-08-05T08:03:15.935Z,99662.84
2022-08-05T08:07:39.609Z,99667.25
2022-08-05T08:12:20.246Z,99661.28
2022-08-05T08:16:50.938Z,99659.53
2022-08-05T08:21:09.544Z,99657.00
2022-08-05T08:25:59.097Z,99655.88
2022-08-05T08:30:29.727Z,99655.06
2022-08-05T08:34:47.661Z,99661.81
2022-08-05T08:39:03.809Z,99659.78
2022-08-05T08:45:19.143Z,99655.03
2022-08-05T08:48:12.725Z,99651.22
2022-08-05T08:52:35.861Z,99656.41
2022-08-05T08:56:54.268Z,99657.94
2022-08-05T09:01:16.018Z,99650.91
2022-08-05T09:05:38.837Z,99639.56
2022-08-05T09:10:08.944Z,99639.78
2022-08-05T09:14:56.990Z,99636.78
2022-08-05T09:19:01.591Z,99629.03
2022-08-05T09:23:22.886Z,99622.31
2022-08-05T09:28:04.774Z,99617.00
2022-08-05T09:32:50.233Z,99620.37
2022-08-05T09:36:59.795Z,99610.16
2022-08-05T09:41:16.299Z,99603.34
2022-08-05T09:46:07.277Z,99600.16
2022-08-05T09:50:13.522Z,99604.22
2022-08-05T09:54:35.630Z,99590.53
2022-08-05T09:59:04.194Z,99593.38
2022-08-05T10:03:20.837Z,99576.53
2022-08-05T10:08:36.586Z,99581.94
2022-08-05T10:12:33.351Z,99577.53
2022-08-05T10:17:00.023Z,99572.31
2022-08-05T10:21:16.602Z,99561.00
2022-08-05T10:25:34.743Z,99554.16
2022-08-05T10:30:40.842Z,99562.22
2022-08-05T10:34:31.005Z,99556.53
2022-08-05T10:38:48.517Z,99547.41
2022-08-05T10:43:35.922Z,99535.87
2022-08-05T10:48:29.904Z,99539.25
2022-08-05T10:53:01.113Z,99529.88
2022-08-05T10:57:31.815Z,99527.50
2022-08-05T11:01:55.233Z,99513.56
2022-08-05T11:06:21.354Z,99510.97
2022-08-05T11:10:49.961Z,99514.31
2022-08-05T11:15:20.252Z,99508.19
2022-08-05T11:20:16.760Z,99509.97
2022-08-05T11:24:30.554Z,99505.06
2022-08-05T11:28:54.981Z,99498.47
2022-08-05T11:33:48.176Z,99498.75
2022-08-05T11:38:28.001Z,99488.66
2022-08-05T11:42:41.985Z,99497.09
2022-08-05T11:47:10.892Z,99493.91
2022-08-05T11:51:44.224Z,99500.41
2022-08-05T11:56:05.708Z,99487.41
2022-08-05T12:00:31.303Z,99493.34
2022-08-05T12:04:59.712Z,99486.88
2022-08-05T12:09:19.811Z,99489.66
2022-08-05T12:13:49.057Z,99474.97
2022-08-05T12:18:10.566Z,99480.56
2022-08-05T12:22:29.936Z,99485.72
2022-08-05T12:26:53.658Z,99476.75
2022-08-05T12:31:10.137Z,99475.56
2022-08-05T12:35:37.028Z,99476.03
2022-08-05T12:40:03.499Z,99469.94
2022-08-05T12:44:33.469Z,99462.88
2022-08-05T12:48:57.377Z,99457.56
2022-08-05T12:53:17.177Z,99467.16
2022-08-05T12:58:39.101Z,99474.56
2022-08-05T13:02:16.417Z,99459.06
2022-08-05T13:06:33.567Z,99456.16
2022-08-05T13:10:50.309Z,99442.69
2022-08-05T13:15:16.300Z,99446.53
2022-08-05T13:19:52.396Z,99434.44
2022-08-05T13:24:09.171Z,99422.84
2022-08-05T13:28:25.145Z,99421.22
2022-08-05T13:32:42.268Z,99412.16
2022-08-05T13:37:07.334Z,99415.91
2022-08-05T13:41:25.794Z,99411.47
2022-08-05T13:45:51.892Z,99402.44
2022-08-05T13:50:11.311Z,99400.47
2022-08-05T13:54:31.254Z,99407.06
2022-08-05T13:58:52.843Z,99386.16
2022-08-05T14:03:09.520Z,99393.00
2022-08-05T14:08:00.228Z,99388.19
2022-08-05T14:12:17.490Z,99387.25
2022-08-05T14:16:34.794Z,99380.97
2022-08-05T14:20:54.808Z,99375.22
2022-08-05T14:25:19.165Z,99367.00
2022-08-05T14:29:37.933Z,99369.81
2022-08-05T14:33:59.542Z,99364.69
2022-08-05T14:38:32.911Z,99364.88
2022-08-05T14:42:52.332Z,99373.12
2022-08-05T14:47:08.823Z,99362.41
2022-08-05T14:51:26.477Z,99360.59
2022-08-05T14:55:52.079Z,99360.09
2022-08-05T15:00:09.286Z,99355.84
2022-08-05T15:04:27.381Z,99348.41
2022-08-05T15:08:58.667Z,99359.28
2022-08-05T15:13:19.355Z,99344.28
2022-08-05T15:17:48.614Z,99343.00
2022-08-05T15:22:09.167Z,99341.53
2022-08-05T15:26:32.182Z,99336.19
2022-08-05T15:30:52.956Z,99333.41
2022-08-05T15:35:10.723Z,99340.06
2022-08-05T15:40:58.968Z,99331.78
2022-08-05T15:44:04.761Z,99328.59
2022-08-05T15:48:21.203Z,99326.94
2022-08-05T15:52:53.089Z,99324.13
2022-08-05T15:57:11.242Z,99324.72
2022-08-05T16:01:39.401Z,99326.41
2022-08-05T16:05:56.183Z,99325.78
2022-08-05T16:10:12.131Z,99331.75
2022-08-05T16:14:28.197Z,99333.62
2022-08-05T16:18:52.758Z,99329.38
2022-08-05T16:23:09.355Z,99330.44
2022-08-05T16:27:47.164Z,99324.66
2022-08-05T16:32:02.944Z,99332.19
2022-08-05T16:36:23.805Z,99324.88
2022-08-05T16:40:40.186Z,99333.88
2022-08-05T16:44:57.055Z,99331.22
2022-08-05T16:49:13.534Z,99324.66
2022-08-05T16:53:32.043Z,99332.75
2022-08-05T16:57:59.915Z,99329.84
2022-08-05T17:02:17.115Z,99329.72
2022-08-05T17:06:34.044Z,99326.81
2022-08-05T17:10:50.301Z,99328.38
2022-08-05T17:15:07.636Z,99327.06
2022-08-05T17:19:25.259Z,99330.41
2022-08-05T17:24:05.963Z,99335.34
2022-08-05T17:28:17.312Z,99344.53
2022-08-05T17:32:34.585Z,99342.06
2022-08-05T17:36:51.292Z,99350.19
2022-08-05T17:41:22.954Z,99353.28
2022-08-05T17:45:44.554Z,99352.91
2022-08-05T17:50:10.174Z,99352.81
2022-08-05T17:54:26.991Z,99358.03
2022-08-05T17:58:43.212Z,99363.81
2022-08-05T18:03:00.563Z,99362.25
2022-08-05T18:07:16.601Z,99359.53
2022-08-05T18:11:33.893Z,99359.66
2022-08-05T18:15:51.353Z,99362.16
2022-08-05T18:20:07.939Z,99359.53
2022-08-05T18:24:30.244Z,99363.84
2022-08-05T18:28:46.586Z,99371.03
2022-08-05T18:33:05.302Z,99372.25
2022-08-05T18:37:34.399Z,99381.41
2022-08-05T18:42:03.751Z,99378.00
2022-08-05T18:46:26.056Z,99386.50
2022-08-05T18:52:06.506Z,99385.59
2022-08-05T18:55:39.910Z,99388.03
2022-08-05T19:00:02.155Z,99392.38
2022-08-05T19:04:23.983Z,99397.53
2022-08-05T19:08:40.406Z,99400.84
2022-08-05T19:12:59.609Z,99420.72
2022-08-05T19:17:19.126Z,99414.28
2022-08-05T19:21:36.122Z,99427.25
2022-08-05T19:25:52.700Z,99416.19
2022-08-05T19:30:21.001Z,99420.94
2022-08-05T19:34:42.063Z,99419.28
2022-08-05T19:39:11.563Z,99424.31
2022-08-05T19:44:04.546Z,99425.44
2022-08-05T19:48:14.599Z,99423.09
2022-08-05T19:52:32.878Z,99422.47
2022-08-05T19:56:49.481Z,99425.41
2022-08-05T20:01:05.938Z,99421.03
2022-08-05T20:05:24.864Z,99427.91
2022-08-05T20:09:53.558Z,99420.84
2022-08-05T20:14:16.559Z,99430.59
2022-08-05T20:18:36.528Z,99433.47
2022-08-05T20:22:52.755Z,99429.87
2022-08-05T20:27:11.358Z,99429.56
2022-08-05T20:31:43.074Z,99430.44
2022-08-05T20:36:04.931Z,99427.94
2022-08-05T20:40:20.939Z,99436.87
2022-08-05T20:44:37.934Z,99438.13
2022-08-05T20:48:54.771Z,99432.97
2022-08-05T20:53:15.918Z,99431.94
2022-08-05T20:57:46.921Z,99432.38
2022-08-05T21:02:05.148Z,99436.47
2022-08-05T21:06:27.753Z,99440.12
2022-08-05T21:10:48.886Z,99439.81
2022-08-05T21:15:05.562Z,99444.59
2022-08-05T21:19:23.503Z,99448.69
2022-08-05T21:23:39.595Z,99447.94
2022-08-05T21:27:55.527Z,99439.53
2022-08-05T21:32:11.717Z,99450.34
2022-08-05T21:36:33.249Z,99445.91
2022-08-05T21:40:49.317Z,99450.34
2022-08-05T21:45:05.788Z,99450.34
2022-08-05T21:49:58.637Z,99469.56
2022-08-05T21:54:04.038Z,99461.53
2022-08-05T21:58:28.794Z,99465.56
2022-08-05T22:02:48.450Z,99450.34
2022-08-05T22:07:04.404Z,99457.56
2022-08-05T22:11:35.445Z,99456.72
2022-08-05T22:16:01.499Z,99465.88
2022-08-05T22:20:25.381Z,99479.84
2022-08-05T22:25:00.598Z,99474.19
2022-08-05T22:29:17.493Z,99470.19
2022-08-05T22:33:57.196Z,99463.00
2022-08-05T22:38:11.269Z,99471.66
2022-08-05T22:42:27.856Z,99474.84
2022-08-05T22:46:45.158Z,99472.84
2022-08-05T22:51:01.282Z,99477.13
2022-08-05T22:55:24.048Z,99473.28
2022-08-05T22:59:47.392Z,99461.19
2022-08-05T23:04:06.595Z,99461.91
2022-08-05T23:08:23.552Z,99461.44
2022-08-05T23:12:43.821Z,99465.47
2022-08-05T23:17:24.170Z,99463.47
2022-08-05T23:21:48.965Z,99457.53
2022-08-05T23:26:05.099Z,99449.78
2022-08-05T23:30:21.114Z,99465.63
2022-08-05T23:34:43.189Z,99461.25
2022-08-05T23:38:59.499Z,99467.94
2022-08-05T23:43:24.773Z,99461.81
2022-08-05T23:47:53.565Z,99464.91
2022-08-05T23:52:28.443Z,99462.81
2022-08-05T23:56:44.585Z,99467.94
